This is the latest recevied weather packets stored in our database for station/object W7BL. If no packets are shown the sender has not sent any weather packets the latest 10 day(s).
| Time | Temp. | Humidity | Pressure | Rain* | Wind** | Luminosity | Snow |
|---|---|---|---|---|---|---|---|
| 1777577014 | 18.33° C | 40% | - | 0 mm | - | - | - |
| 1777576712 | 17.22° C | 43% | - | 0 mm | - | - | - |
| 1777576410 | 17.78° C | 39% | - | 0 mm | - | - | - |
| 1777576107 | 17.22° C | 45% | - | 0 mm | - | - | - |
| 1777575802 | 17.78° C | 42% | - | 0 mm | - | - | - |
| 1777575500 | 16.67° C | 45% | - | 0 mm | - | - | - |
| 1777575195 | 16.11° C | 43% | - | 0 mm | - | - | - |
| 1777574891 | 15.56° C | 44% | - | 0 mm | - | - | - |
| 1777574589 | 16.11° C | 46% | - | 0 mm | - | - | - |
| 1777574285 | 15.56° C | 47% | - | 0 mm | - | - | - |
| 1777573980 | 16.11° C | 48% | - | 0 mm | - | - | - |
| 1777573675 | 16.11° C | 46% | - | 0 mm | - | - | - |
| 1777573372 | 15° C | 49% | - | 0 mm | - | - | - |
| 1777573068 | 15° C | 51% | - | 0 mm | - | - | - |
| 1777572765 | 15° C | 51% | - | 0 mm | - | - | - |
| 1777572465 | 16.11° C | 49% | - | 0 mm | - | - | - |
| 1777572161 | 14.44° C | 54% | - | 0 mm | - | - | - |
| 1777571857 | 15° C | 50% | - | 0 mm | - | - | - |
| 1777571552 | 15° C | 51% | - | 0 mm | - | - | - |
| 1777571249 | 14.44° C | 53% | - | 0 mm | - | - | - |
| 1777570946 | 14.44° C | 54% | - | 0 mm | - | - | - |
| 1777570641 | 15.56° C | 51% | - | 0 mm | - | - | - |
| 1777570338 | 13.33° C | 54% | - | 0 mm | - | - | - |
| 1777570034 | 13.89° C | 52% | - | 0 mm | - | - | - |
| 1777569730 | 14.44° C | 52% | - | 0 mm | - | - | - |
* Rain latest hour (hover to see other rain measurements)
** Current wind speed in m/s (hover to see current wind gust speed)